METAR Data
IDs: Format: Raw Decoded Include TAF

Data at: 1345 UTC 07 Jul 2020

KOMN 071250Z 22005KT 7SM CLR 26/12 A3007

KDAB 071253Z 21008KT 10SM FEW250 26/25 A3007 RMK AO2 SLP182 T02610250